sensor_id;sensor_type;location;lat;lon;timestamp;temperature;humidity
21807;DHT22;11065;50.786;7.840;2023-07-24T00:00:01;20.60;58.30
21807;DHT22;11065;50.786;7.840;2023-07-24T00:02:30;20.50;58.40
21807;DHT22;11065;50.786;7.840;2023-07-24T00:05:00;20.50;58.40
21807;DHT22;11065;50.786;7.840;2023-07-24T00:07:28;20.50;58.60
21807;DHT22;11065;50.786;7.840;2023-07-24T00:09:56;20.50;58.60
21807;DHT22;11065;50.786;7.840;2023-07-24T00:12:24;20.50;58.70
21807;DHT22;11065;50.786;7.840;2023-07-24T00:14:53;20.50;58.70
21807;DHT22;11065;50.786;7.840;2023-07-24T00:17:21;20.60;58.80
21807;DHT22;11065;50.786;7.840;2023-07-24T00:19:50;20.50;58.70
21807;DHT22;11065;50.786;7.840;2023-07-24T00:22:19;20.50;58.70
21807;DHT22;11065;50.786;7.840;2023-07-24T00:24:48;20.50;58.90
21807;DHT22;11065;50.786;7.840;2023-07-24T00:27:16;20.50;58.80
21807;DHT22;11065;50.786;7.840;2023-07-24T00:29:45;20.50;58.90
21807;DHT22;11065;50.786;7.840;2023-07-24T00:32:14;20.50;58.90
21807;DHT22;11065;50.786;7.840;2023-07-24T00:34:43;20.60;59.00
21807;DHT22;11065;50.786;7.840;2023-07-24T00:37:11;20.60;59.00
21807;DHT22;11065;50.786;7.840;2023-07-24T00:39:40;20.60;58.90
21807;DHT22;11065;50.786;7.840;2023-07-24T00:42:09;20.50;59.00
21807;DHT22;11065;50.786;7.840;2023-07-24T00:44:37;20.50;59.00
21807;DHT22;11065;50.786;7.840;2023-07-24T00:47:05;20.50;58.90
21807;DHT22;11065;50.786;7.840;2023-07-24T00:49:34;20.50;58.90
21807;DHT22;11065;50.786;7.840;2023-07-24T00:52:02;20.50;59.00
21807;DHT22;11065;50.786;7.840;2023-07-24T00:54:32;20.50;59.20
21807;DHT22;11065;50.786;7.840;2023-07-24T00:57:03;20.50;59.30
21807;DHT22;11065;50.786;7.840;2023-07-24T00:59:32;20.40;59.40
21807;DHT22;11065;50.786;7.840;2023-07-24T01:02:01;20.40;59.20
21807;DHT22;11065;50.786;7.840;2023-07-24T01:04:29;20.50;59.20
21807;DHT22;11065;50.786;7.840;2023-07-24T01:06:58;20.50;59.20
21807;DHT22;11065;50.786;7.840;2023-07-24T01:09:26;20.50;59.20
21807;DHT22;11065;50.786;7.840;2023-07-24T01:11:57;20.40;59.10
21807;DHT22;11065;50.786;7.840;2023-07-24T01:14:34;20.40;59.30
21807;DHT22;11065;50.786;7.840;2023-07-24T01:17:06;20.40;59.50
21807;DHT22;11065;50.786;7.840;2023-07-24T01:19:37;20.30;59.20
21807;DHT22;11065;50.786;7.840;2023-07-24T01:22:14;20.30;59.20
21807;DHT22;11065;50.786;7.840;2023-07-24T01:24:59;20.30;59.30
21807;DHT22;11065;50.786;7.840;2023-07-24T01:27:30;20.20;59.60
21807;DHT22;11065;50.786;7.840;2023-07-24T01:29:58;20.20;59.20
21807;DHT22;11065;50.786;7.840;2023-07-24T01:32:26;20.20;59.20
21807;DHT22;11065;50.786;7.840;2023-07-24T01:34:55;20.10;59.30
21807;DHT22;11065;50.786;7.840;2023-07-24T01:37:25;20.10;59.40
21807;DHT22;11065;50.786;7.840;2023-07-24T01:39:55;20.10;59.70
21807;DHT22;11065;50.786;7.840;2023-07-24T01:42:25;20.10;59.70
21807;DHT22;11065;50.786;7.840;2023-07-24T01:44:55;20.10;59.80
21807;DHT22;11065;50.786;7.840;2023-07-24T01:47:23;20.20;60.10
21807;DHT22;11065;50.786;7.840;2023-07-24T01:49:52;20.10;59.90
21807;DHT22;11065;50.786;7.840;2023-07-24T01:52:20;20.10;60.10
21807;DHT22;11065;50.786;7.840;2023-07-24T01:54:49;20.10;60.00
21807;DHT22;11065;50.786;7.840;2023-07-24T01:57:17;20.10;60.10
21807;DHT22;11065;50.786;7.840;2023-07-24T01:59:45;20.00;60.10
21807;DHT22;11065;50.786;7.840;2023-07-24T02:02:17;20.10;60.20
21807;DHT22;11065;50.786;7.840;2023-07-24T02:04:46;20.10;60.30
21807;DHT22;11065;50.786;7.840;2023-07-24T02:07:15;20.00;60.20
21807;DHT22;11065;50.786;7.840;2023-07-24T02:09:44;20.10;60.40
21807;DHT22;11065;50.786;7.840;2023-07-24T02:12:12;20.00;60.40
21807;DHT22;11065;50.786;7.840;2023-07-24T02:14:40;20.00;60.40
21807;DHT22;11065;50.786;7.840;2023-07-24T02:17:10;20.00;60.50
21807;DHT22;11065;50.786;7.840;2023-07-24T02:19:40;20.00;60.60
21807;DHT22;11065;50.786;7.840;2023-07-24T02:22:08;20.00;60.80
21807;DHT22;11065;50.786;7.840;2023-07-24T02:24:37;20.00;60.60
21807;DHT22;11065;50.786;7.840;2023-07-24T02:27:05;20.00;60.60
21807;DHT22;11065;50.786;7.840;2023-07-24T02:29:33;20.00;60.60
21807;DHT22;11065;50.786;7.840;2023-07-24T02:32:03;20.00;60.80
21807;DHT22;11065;50.786;7.840;2023-07-24T02:34:31;20.00;60.60
21807;DHT22;11065;50.786;7.840;2023-07-24T02:37:01;20.00;60.70
21807;DHT22;11065;50.786;7.840;2023-07-24T02:39:30;20.00;60.90
21807;DHT22;11065;50.786;7.840;2023-07-24T02:41:58;20.00;60.90
21807;DHT22;11065;50.786;7.840;2023-07-24T02:44:26;19.90;61.00
21807;DHT22;11065;50.786;7.840;2023-07-24T02:46:54;20.00;61.00
21807;DHT22;11065;50.786;7.840;2023-07-24T02:49:23;20.10;61.10
21807;DHT22;11065;50.786;7.840;2023-07-24T02:51:51;19.90;61.20
21807;DHT22;11065;50.786;7.840;2023-07-24T02:54:21;20.00;61.40
21807;DHT22;11065;50.786;7.840;2023-07-24T02:56:49;20.00;61.60
21807;DHT22;11065;50.786;7.840;2023-07-24T02:59:18;19.90;61.30
21807;DHT22;11065;50.786;7.840;2023-07-24T03:01:46;20.00;61.40
21807;DHT22;11065;50.786;7.840;2023-07-24T03:04:15;20.00;61.50
21807;DHT22;11065;50.786;7.840;2023-07-24T03:06:43;19.90;61.50
21807;DHT22;11065;50.786;7.840;2023-07-24T03:09:11;19.90;61.50
21807;DHT22;11065;50.786;7.840;2023-07-24T03:11:41;19.90;61.80
21807;DHT22;11065;50.786;7.840;2023-07-24T03:14:09;19.90;61.80
21807;DHT22;11065;50.786;7.840;2023-07-24T03:16:38;19.90;61.70
21807;DHT22;11065;50.786;7.840;2023-07-24T03:19:06;19.90;61.80
21807;DHT22;11065;50.786;7.840;2023-07-24T03:21:34;19.90;61.80
21807;DHT22;11065;50.786;7.840;2023-07-24T03:24:04;19.90;61.90
21807;DHT22;11065;50.786;7.840;2023-07-24T03:26:32;19.90;62.00
21807;DHT22;11065;50.786;7.840;2023-07-24T03:29:02;19.90;61.90
21807;DHT22;11065;50.786;7.840;2023-07-24T03:31:30;20.00;62.00
21807;DHT22;11065;50.786;7.840;2023-07-24T03:33:59;19.90;61.70
21807;DHT22;11065;50.786;7.840;2023-07-24T03:36:27;19.90;61.70
21807;DHT22;11065;50.786;7.840;2023-07-24T03:38:56;19.90;61.70
21807;DHT22;11065;50.786;7.840;2023-07-24T03:41:24;19.90;61.70
21807;DHT22;11065;50.786;7.840;2023-07-24T03:43:54;19.80;61.70
21807;DHT22;11065;50.786;7.840;2023-07-24T03:46:24;19.80;61.60
21807;DHT22;11065;50.786;7.840;2023-07-24T03:48:53;19.80;61.90
21807;DHT22;11065;50.786;7.840;2023-07-24T03:51:22;19.80;61.80
21807;DHT22;11065;50.786;7.840;2023-07-24T03:53:50;19.80;62.00
21807;DHT22;11065;50.786;7.840;2023-07-24T03:56:20;19.80;62.10
21807;DHT22;11065;50.786;7.840;2023-07-24T03:58:49;19.80;62.10
21807;DHT22;11065;50.786;7.840;2023-07-24T04:01:17;19.80;62.20
21807;DHT22;11065;50.786;7.840;2023-07-24T04:03:47;19.70;61.90
21807;DHT22;11065;50.786;7.840;2023-07-24T04:06:15;19.70;62.00
21807;DHT22;11065;50.786;7.840;2023-07-24T04:08:43;19.70;61.80
21807;DHT22;11065;50.786;7.840;2023-07-24T04:11:12;19.70;61.80
21807;DHT22;11065;50.786;7.840;2023-07-24T04:13:40;19.60;61.80
21807;DHT22;11065;50.786;7.840;2023-07-24T04:16:08;19.60;62.00
21807;DHT22;11065;50.786;7.840;2023-07-24T04:18:36;19.70;62.20
21807;DHT22;11065;50.786;7.840;2023-07-24T04:21:07;19.60;62.50
21807;DHT22;11065;50.786;7.840;2023-07-24T04:23:36;19.60;62.90
21807;DHT22;11065;50.786;7.840;2023-07-24T04:26:04;19.60;63.00
21807;DHT22;11065;50.786;7.840;2023-07-24T04:28:33;19.60;63.20
21807;DHT22;11065;50.786;7.840;2023-07-24T04:31:01;19.70;63.30
21807;DHT22;11065;50.786;7.840;2023-07-24T04:33:29;19.70;63.00
21807;DHT22;11065;50.786;7.840;2023-07-24T04:35:59;19.70;62.90
21807;DHT22;11065;50.786;7.840;2023-07-24T04:38:28;19.70;62.80
21807;DHT22;11065;50.786;7.840;2023-07-24T04:40:57;19.70;62.90
21807;DHT22;11065;50.786;7.840;2023-07-24T04:43:25;19.70;62.80
21807;DHT22;11065;50.786;7.840;2023-07-24T04:45:53;19.70;63.10
21807;DHT22;11065;50.786;7.840;2023-07-24T04:48:22;19.70;63.40
21807;DHT22;11065;50.786;7.840;2023-07-24T04:50:53;19.70;63.60
21807;DHT22;11065;50.786;7.840;2023-07-24T04:53:22;19.80;64.00
21807;DHT22;11065;50.786;7.840;2023-07-24T04:55:52;19.80;63.90
21807;DHT22;11065;50.786;7.840;2023-07-24T04:58:20;19.90;64.20
21807;DHT22;11065;50.786;7.840;2023-07-24T05:00:48;19.90;64.00
21807;DHT22;11065;50.786;7.840;2023-07-24T05:03:16;20.00;63.90
21807;DHT22;11065;50.786;7.840;2023-07-24T05:05:48;20.00;63.90
21807;DHT22;11065;50.786;7.840;2023-07-24T05:08:16;20.00;63.90
21807;DHT22;11065;50.786;7.840;2023-07-24T05:10:44;20.10;63.50
21807;DHT22;11065;50.786;7.840;2023-07-24T05:13:14;20.10;63.20
21807;DHT22;11065;50.786;7.840;2023-07-24T05:15:42;20.20;63.10
21807;DHT22;11065;50.786;7.840;2023-07-24T05:18:10;20.20;62.90
21807;DHT22;11065;50.786;7.840;2023-07-24T05:20:42;20.20;62.90
21807;DHT22;11065;50.786;7.840;2023-07-24T05:23:10;20.20;63.00
21807;DHT22;11065;50.786;7.840;2023-07-24T05:25:39;20.30;63.10
21807;DHT22;11065;50.786;7.840;2023-07-24T05:28:07;20.30;63.40
21807;DHT22;11065;50.786;7.840;2023-07-24T05:30:37;20.30;63.70
21807;DHT22;11065;50.786;7.840;2023-07-24T05:33:05;20.40;64.00
21807;DHT22;11065;50.786;7.840;2023-07-24T05:35:33;20.50;64.10
21807;DHT22;11065;50.786;7.840;2023-07-24T05:38:01;20.50;63.80
21807;DHT22;11065;50.786;7.840;2023-07-24T05:40:30;20.60;63.60
21807;DHT22;11065;50.786;7.840;2023-07-24T05:42:58;20.70;63.50
21807;DHT22;11065;50.786;7.840;2023-07-24T05:45:26;20.90;63.30
21807;DHT22;11065;50.786;7.840;2023-07-24T05:47:56;20.80;62.80
21807;DHT22;11065;50.786;7.840;2023-07-24T05:50:24;20.90;62.30
21807;DHT22;11065;50.786;7.840;2023-07-24T05:52:53;20.90;62.30
21807;DHT22;11065;50.786;7.840;2023-07-24T05:55:21;21.00;62.10
21807;DHT22;11065;50.786;7.840;2023-07-24T05:57:49;21.10;61.90
21807;DHT22;11065;50.786;7.840;2023-07-24T06:00:18;21.10;62.00
21807;DHT22;11065;50.786;7.840;2023-07-24T06:02:46;21.20;61.90
21807;DHT22;11065;50.786;7.840;2023-07-24T06:05:16;21.20;61.40
21807;DHT22;11065;50.786;7.840;2023-07-24T06:07:44;21.30;61.10
21807;DHT22;11065;50.786;7.840;2023-07-24T06:10:13;21.40;61.00
21807;DHT22;11065;50.786;7.840;2023-07-24T06:12:41;21.50;59.60
21807;DHT22;11065;50.786;7.840;2023-07-24T06:15:09;21.40;59.60
21807;DHT22;11065;50.786;7.840;2023-07-24T06:17:37;21.50;59.60
21807;DHT22;11065;50.786;7.840;2023-07-24T06:20:07;21.60;59.60
21807;DHT22;11065;50.786;7.840;2023-07-24T06:22:37;21.60;59.20
21807;DHT22;11065;50.786;7.840;2023-07-24T06:25:06;21.70;59.00
21807;DHT22;11065;50.786;7.840;2023-07-24T06:27:34;21.70;58.80
21807;DHT22;11065;50.786;7.840;2023-07-24T06:30:03;21.80;59.10
21807;DHT22;11065;50.786;7.840;2023-07-24T06:32:42;21.80;59.20
21807;DHT22;11065;50.786;7.840;2023-07-24T06:35:10;21.90;59.10
21807;DHT22;11065;50.786;7.840;2023-07-24T06:37:40;21.90;58.80
21807;DHT22;11065;50.786;7.840;2023-07-24T06:40:08;22.00;58.20
21807;DHT22;11065;50.786;7.840;2023-07-24T06:42:37;22.00;58.30
21807;DHT22;11065;50.786;7.840;2023-07-24T06:45:07;22.10;58.30
21807;DHT22;11065;50.786;7.840;2023-07-24T06:47:35;22.10;58.10
21807;DHT22;11065;50.786;7.840;2023-07-24T06:50:05;22.10;58.00
21807;DHT22;11065;50.786;7.840;2023-07-24T06:52:34;22.10;57.20
21807;DHT22;11065;50.786;7.840;2023-07-24T06:55:05;22.10;57.60
21807;DHT22;11065;50.786;7.840;2023-07-24T06:57:34;22.10;57.50
21807;DHT22;11065;50.786;7.840;2023-07-24T07:00:02;22.20;57.70
21807;DHT22;11065;50.786;7.840;2023-07-24T07:02:31;22.20;57.90
21807;DHT22;11065;50.786;7.840;2023-07-24T07:04:59;22.20;57.90
21807;DHT22;11065;50.786;7.840;2023-07-24T07:07:28;22.20;57.80
21807;DHT22;11065;50.786;7.840;2023-07-24T07:09:56;22.30;58.10
21807;DHT22;11065;50.786;7.840;2023-07-24T07:12:26;22.40;58.30
21807;DHT22;11065;50.786;7.840;2023-07-24T07:14:54;22.50;58.40
21807;DHT22;11065;50.786;7.840;2023-07-24T07:17:22;22.60;57.80
21807;DHT22;11065;50.786;7.840;2023-07-24T07:19:51;22.70;57.90
21807;DHT22;11065;50.786;7.840;2023-07-24T07:22:19;22.80;57.70
21807;DHT22;11065;50.786;7.840;2023-07-24T07:24:47;23.00;57.50
21807;DHT22;11065;50.786;7.840;2023-07-24T07:27:15;23.10;57.30
21807;DHT22;11065;50.786;7.840;2023-07-24T07:29:46;23.20;56.90
21807;DHT22;11065;50.786;7.840;2023-07-24T07:32:14;23.30;56.60
21807;DHT22;11065;50.786;7.840;2023-07-24T07:34:43;23.40;56.50
21807;DHT22;11065;50.786;7.840;2023-07-24T07:37:12;23.40;56.10
21807;DHT22;11065;50.786;7.840;2023-07-24T07:39:40;23.50;56.10
21807;DHT22;11065;50.786;7.840;2023-07-24T07:42:08;23.60;56.00
21807;DHT22;11065;50.786;7.840;2023-07-24T07:44:45;23.60;55.70
21807;DHT22;11065;50.786;7.840;2023-07-24T07:47:14;23.70;56.00
21807;DHT22;11065;50.786;7.840;2023-07-24T07:49:42;23.80;56.10
21807;DHT22;11065;50.786;7.840;2023-07-24T07:52:10;23.90;55.60
21807;DHT22;11065;50.786;7.840;2023-07-24T07:54:39;24.00;55.50
21807;DHT22;11065;50.786;7.840;2023-07-24T07:57:08;24.10;55.40
21807;DHT22;11065;50.786;7.840;2023-07-24T07:59:36;24.20;55.30
21807;DHT22;11065;50.786;7.840;2023-07-24T08:02:06;24.30;54.70
21807;DHT22;11065;50.786;7.840;2023-07-24T08:04:35;24.40;54.00
21807;DHT22;11065;50.786;7.840;2023-07-24T08:07:04;24.60;54.30
21807;DHT22;11065;50.786;7.840;2023-07-24T08:09:32;24.50;53.50
21807;DHT22;11065;50.786;7.840;2023-07-24T08:12:01;24.50;53.10
21807;DHT22;11065;50.786;7.840;2023-07-24T08:14:32;24.50;52.80
21807;DHT22;11065;50.786;7.840;2023-07-24T08:17:00;24.50;52.90
21807;DHT22;11065;50.786;7.840;2023-07-24T08:19:30;24.40;52.70
21807;DHT22;11065;50.786;7.840;2023-07-24T08:21:58;24.40;52.50
21807;DHT22;11065;50.786;7.840;2023-07-24T08:24:26;24.40;52.80
21807;DHT22;11065;50.786;7.840;2023-07-24T08:26:55;24.40;52.90
21807;DHT22;11065;50.786;7.840;2023-07-24T08:29:23;24.40;53.00
21807;DHT22;11065;50.786;7.840;2023-07-24T08:31:51;24.40;53.10
21807;DHT22;11065;50.786;7.840;2023-07-24T08:34:20;24.50;53.40
21807;DHT22;11065;50.786;7.840;2023-07-24T08:36:49;24.60;52.60
21807;DHT22;11065;50.786;7.840;2023-07-24T08:39:18;24.60;52.90
21807;DHT22;11065;50.786;7.840;2023-07-24T08:41:46;24.80;53.10
21807;DHT22;11065;50.786;7.840;2023-07-24T08:44:15;24.90;53.20
21807;DHT22;11065;50.786;7.840;2023-07-24T08:46:44;25.10;53.20
21807;DHT22;11065;50.786;7.840;2023-07-24T08:49:16;25.30;53.10
21807;DHT22;11065;50.786;7.840;2023-07-24T08:51:45;25.40;53.10
21807;DHT22;11065;50.786;7.840;2023-07-24T08:54:16;25.70;53.20
21807;DHT22;11065;50.786;7.840;2023-07-24T08:56:46;25.90;52.90
21807;DHT22;11065;50.786;7.840;2023-07-24T08:59:17;26.00;51.90
21807;DHT22;11065;50.786;7.840;2023-07-24T09:01:45;26.10;51.40
21807;DHT22;11065;50.786;7.840;2023-07-24T09:04:14;26.10;51.30
21807;DHT22;11065;50.786;7.840;2023-07-24T09:06:42;26.20;51.30
21807;DHT22;11065;50.786;7.840;2023-07-24T09:09:15;26.20;51.00
21807;DHT22;11065;50.786;7.840;2023-07-24T09:11:48;26.30;51.00
21807;DHT22;11065;50.786;7.840;2023-07-24T09:14:21;26.50;51.70
21807;DHT22;11065;50.786;7.840;2023-07-24T09:16:50;26.80;52.30
21807;DHT22;11065;50.786;7.840;2023-07-24T09:19:29;27.10;52.80
21807;DHT22;11065;50.786;7.840;2023-07-24T09:22:08;27.60;53.80
21807;DHT22;11065;50.786;7.840;2023-07-24T09:24:49;28.10;52.40
21807;DHT22;11065;50.786;7.840;2023-07-24T09:27:19;28.60;50.60
21807;DHT22;11065;50.786;7.840;2023-07-24T09:29:47;29.00;51.50
21807;DHT22;11065;50.786;7.840;2023-07-24T09:32:19;29.30;50.30
21807;DHT22;11065;50.786;7.840;2023-07-24T09:34:49;29.60;49.80
21807;DHT22;11065;50.786;7.840;2023-07-24T09:37:26;29.90;50.30
21807;DHT22;11065;50.786;7.840;2023-07-24T09:39:55;30.30;49.50
21807;DHT22;11065;50.786;7.840;2023-07-24T09:42:30;30.80;50.20
21807;DHT22;11065;50.786;7.840;2023-07-24T09:44:58;31.10;47.90
21807;DHT22;11065;50.786;7.840;2023-07-24T09:47:28;31.30;47.60
21807;DHT22;11065;50.786;7.840;2023-07-24T09:50:16;31.30;46.50
21807;DHT22;11065;50.786;7.840;2023-07-24T09:52:47;31.10;45.60
21807;DHT22;11065;50.786;7.840;2023-07-24T09:55:21;30.90;44.80
21807;DHT22;11065;50.786;7.840;2023-07-24T09:57:52;30.70;44.70
21807;DHT22;11065;50.786;7.840;2023-07-24T10:00:22;30.50;45.40
21807;DHT22;11065;50.786;7.840;2023-07-24T10:02:51;30.50;46.30
21807;DHT22;11065;50.786;7.840;2023-07-24T10:05:19;30.90;47.90
21807;DHT22;11065;50.786;7.840;2023-07-24T10:07:48;31.40;47.60
21807;DHT22;11065;50.786;7.840;2023-07-24T10:10:19;32.00;49.00
21807;DHT22;11065;50.786;7.840;2023-07-24T10:12:48;32.80;47.40
21807;DHT22;11065;50.786;7.840;2023-07-24T10:15:18;33.30;45.20
21807;DHT22;11065;50.786;7.840;2023-07-24T10:17:47;33.60;44.90
21807;DHT22;11065;50.786;7.840;2023-07-24T10:20:16;34.00;45.00
21807;DHT22;11065;50.786;7.840;2023-07-24T10:22:45;34.50;45.10
21807;DHT22;11065;50.786;7.840;2023-07-24T10:25:13;35.00;43.20
21807;DHT22;11065;50.786;7.840;2023-07-24T10:27:44;35.50;43.60
21807;DHT22;11065;50.786;7.840;2023-07-24T10:30:14;35.90;42.50
21807;DHT22;11065;50.786;7.840;2023-07-24T10:33:07;35.90;40.60
21807;DHT22;11065;50.786;7.840;2023-07-24T10:35:40;35.80;38.80
21807;DHT22;11065;50.786;7.840;2023-07-24T10:38:09;35.50;37.40
21807;DHT22;11065;50.786;7.840;2023-07-24T10:40:40;35.20;39.10
21807;DHT22;11065;50.786;7.840;2023-07-24T10:43:11;35.00;38.70
21807;DHT22;11065;50.786;7.840;2023-07-24T10:45:45;34.60;38.40
21807;DHT22;11065;50.786;7.840;2023-07-24T10:48:15;34.20;38.40
21807;DHT22;11065;50.786;7.840;2023-07-24T10:50:45;33.70;38.00
21807;DHT22;11065;50.786;7.840;2023-07-24T10:53:19;33.20;37.70
21807;DHT22;11065;50.786;7.840;2023-07-24T10:55:47;32.70;38.20
21807;DHT22;11065;50.786;7.840;2023-07-24T10:58:18;32.20;38.30
21807;DHT22;11065;50.786;7.840;2023-07-24T11:00:46;31.80;38.50
21807;DHT22;11065;50.786;7.840;2023-07-24T11:03:16;31.50;39.20
21807;DHT22;11065;50.786;7.840;2023-07-24T11:05:46;31.20;39.60
21807;DHT22;11065;50.786;7.840;2023-07-24T11:08:16;31.10;40.00
21807;DHT22;11065;50.786;7.840;2023-07-24T11:10:45;31.00;40.10
21807;DHT22;11065;50.786;7.840;2023-07-24T11:13:15;31.00;40.20
21807;DHT22;11065;50.786;7.840;2023-07-24T11:15:45;30.90;39.60
21807;DHT22;11065;50.786;7.840;2023-07-24T11:18:14;30.80;40.10
21807;DHT22;11065;50.786;7.840;2023-07-24T11:20:44;30.80;41.30
21807;DHT22;11065;50.786;7.840;2023-07-24T11:23:14;31.10;41.70
21807;DHT22;11065;50.786;7.840;2023-07-24T11:25:44;31.30;40.80
21807;DHT22;11065;50.786;7.840;2023-07-24T11:28:14;31.50;41.00
21807;DHT22;11065;50.786;7.840;2023-07-24T11:30:44;31.60;40.60
21807;DHT22;11065;50.786;7.840;2023-07-24T11:33:15;31.70;40.40
21807;DHT22;11065;50.786;7.840;2023-07-24T11:35:45;31.70;39.80
21807;DHT22;11065;50.786;7.840;2023-07-24T11:38:16;31.70;39.20
21807;DHT22;11065;50.786;7.840;2023-07-24T11:40:44;31.60;38.80
21807;DHT22;11065;50.786;7.840;2023-07-24T11:43:16;31.30;38.70
21807;DHT22;11065;50.786;7.840;2023-07-24T11:45:47;31.10;38.50
21807;DHT22;11065;50.786;7.840;2023-07-24T11:48:20;30.90;38.20
21807;DHT22;11065;50.786;7.840;2023-07-24T11:50:49;30.70;38.60
21807;DHT22;11065;50.786;7.840;2023-07-24T11:53:20;30.40;38.70
21807;DHT22;11065;50.786;7.840;2023-07-24T11:55:50;30.30;39.00
21807;DHT22;11065;50.786;7.840;2023-07-24T11:58:19;30.40;40.00
21807;DHT22;11065;50.786;7.840;2023-07-24T12:00:49;30.60;40.50
21807;DHT22;11065;50.786;7.840;2023-07-24T12:03:20;31.10;40.70
21807;DHT22;11065;50.786;7.840;2023-07-24T12:05:49;31.70;41.30
21807;DHT22;11065;50.786;7.840;2023-07-24T12:08:19;32.30;40.80
21807;DHT22;11065;50.786;7.840;2023-07-24T12:10:50;32.90;39.20
21807;DHT22;11065;50.786;7.840;2023-07-24T12:13:17;33.40;39.50
21807;DHT22;11065;50.786;7.840;2023-07-24T12:15:49;33.70;38.90
21807;DHT22;11065;50.786;7.840;2023-07-24T12:18:18;33.90;37.70
21807;DHT22;11065;50.786;7.840;2023-07-24T12:20:46;34.10;36.70
21807;DHT22;11065;50.786;7.840;2023-07-24T12:23:14;34.20;36.90
21807;DHT22;11065;50.786;7.840;2023-07-24T12:25:43;34.40;36.00
21807;DHT22;11065;50.786;7.840;2023-07-24T12:28:11;34.50;37.00
21807;DHT22;11065;50.786;7.840;2023-07-24T12:30:40;34.70;37.00
21807;DHT22;11065;50.786;7.840;2023-07-24T12:33:10;34.80;36.40
21807;DHT22;11065;50.786;7.840;2023-07-24T12:35:38;34.80;35.50
21807;DHT22;11065;50.786;7.840;2023-07-24T12:38:06;34.60;35.40
21807;DHT22;11065;50.786;7.840;2023-07-24T12:40:34;34.50;35.10
21807;DHT22;11065;50.786;7.840;2023-07-24T12:43:02;34.20;34.50
21807;DHT22;11065;50.786;7.840;2023-07-24T12:45:30;33.90;34.50
21807;DHT22;11065;50.786;7.840;2023-07-24T12:48:00;33.60;34.40
21807;DHT22;11065;50.786;7.840;2023-07-24T12:50:30;33.20;34.20
21807;DHT22;11065;50.786;7.840;2023-07-24T12:52:58;32.90;34.50
21807;DHT22;11065;50.786;7.840;2023-07-24T12:55:30;32.60;35.40
21807;DHT22;11065;50.786;7.840;2023-07-24T12:57:59;32.50;36.40
21807;DHT22;11065;50.786;7.840;2023-07-24T13:00:28;32.60;36.90
21807;DHT22;11065;50.786;7.840;2023-07-24T13:02:58;32.60;37.10
21807;DHT22;11065;50.786;7.840;2023-07-24T13:05:26;32.70;37.00
21807;DHT22;11065;50.786;7.840;2023-07-24T13:07:57;32.80;36.60
21807;DHT22;11065;50.786;7.840;2023-07-24T13:10:25;32.90;37.50
21807;DHT22;11065;50.786;7.840;2023-07-24T13:12:53;33.10;36.70
21807;DHT22;11065;50.786;7.840;2023-07-24T13:15:22;33.20;37.20
21807;DHT22;11065;50.786;7.840;2023-07-24T13:17:50;33.40;37.40
21807;DHT22;11065;50.786;7.840;2023-07-24T13:20:18;33.70;37.50
21807;DHT22;11065;50.786;7.840;2023-07-24T13:22:46;33.90;36.80
21807;DHT22;11065;50.786;7.840;2023-07-24T13:25:17;34.00;36.50
21807;DHT22;11065;50.786;7.840;2023-07-24T13:27:45;34.20;36.70
21807;DHT22;11065;50.786;7.840;2023-07-24T13:30:13;34.30;36.60
21807;DHT22;11065;50.786;7.840;2023-07-24T13:32:41;34.30;36.40
21807;DHT22;11065;50.786;7.840;2023-07-24T13:35:11;34.30;36.10
21807;DHT22;11065;50.786;7.840;2023-07-24T13:37:39;34.20;35.90
21807;DHT22;11065;50.786;7.840;2023-07-24T13:40:08;34.00;35.40
21807;DHT22;11065;50.786;7.840;2023-07-24T13:42:38;33.70;35.20
21807;DHT22;11065;50.786;7.840;2023-07-24T13:45:08;33.20;35.10
21807;DHT22;11065;50.786;7.840;2023-07-24T13:47:36;32.90;35.30
21807;DHT22;11065;50.786;7.840;2023-07-24T13:50:05;32.40;35.60
21807;DHT22;11065;50.786;7.840;2023-07-24T13:52:34;32.10;35.80
21807;DHT22;11065;50.786;7.840;2023-07-24T13:55:03;31.70;35.90
21807;DHT22;11065;50.786;7.840;2023-07-24T13:57:31;31.40;36.20
21807;DHT22;11065;50.786;7.840;2023-07-24T14:00:00;31.10;36.30
21807;DHT22;11065;50.786;7.840;2023-07-24T14:02:37;30.80;36.40
21807;DHT22;11065;50.786;7.840;2023-07-24T14:05:07;30.60;36.70
21807;DHT22;11065;50.786;7.840;2023-07-24T14:07:35;30.30;36.80
21807;DHT22;11065;50.786;7.840;2023-07-24T14:10:04;30.10;37.00
21807;DHT22;11065;50.786;7.840;2023-07-24T14:12:33;29.80;37.50
21807;DHT22;11065;50.786;7.840;2023-07-24T14:15:03;29.50;37.70
21807;DHT22;11065;50.786;7.840;2023-07-24T14:17:32;29.20;39.20
21807;DHT22;11065;50.786;7.840;2023-07-24T14:20:02;28.90;39.00
21807;DHT22;11065;50.786;7.840;2023-07-24T14:22:30;28.60;39.40
21807;DHT22;11065;50.786;7.840;2023-07-24T14:24:58;28.40;39.90
21807;DHT22;11065;50.786;7.840;2023-07-24T14:27:27;28.20;40.20
21807;DHT22;11065;50.786;7.840;2023-07-24T14:29:56;28.00;40.50
21807;DHT22;11065;50.786;7.840;2023-07-24T14:32:25;27.90;40.50
21807;DHT22;11065;50.786;7.840;2023-07-24T14:34:53;27.80;40.90
21807;DHT22;11065;50.786;7.840;2023-07-24T14:37:22;27.70;41.30
21807;DHT22;11065;50.786;7.840;2023-07-24T14:39:50;27.70;42.10
21807;DHT22;11065;50.786;7.840;2023-07-24T14:42:18;27.80;42.60
21807;DHT22;11065;50.786;7.840;2023-07-24T14:44:47;28.00;43.00
21807;DHT22;11065;50.786;7.840;2023-07-24T14:47:15;28.30;43.00
21807;DHT22;11065;50.786;7.840;2023-07-24T14:49:45;28.60;43.00
21807;DHT22;11065;50.786;7.840;2023-07-24T14:52:13;28.90;42.90
21807;DHT22;11065;50.786;7.840;2023-07-24T14:54:41;29.10;42.20
21807;DHT22;11065;50.786;7.840;2023-07-24T14:57:09;29.20;41.80
21807;DHT22;11065;50.786;7.840;2023-07-24T14:59:51;29.40;42.10
21807;DHT22;11065;50.786;7.840;2023-07-24T15:02:19;29.50;42.30
21807;DHT22;11065;50.786;7.840;2023-07-24T15:04:49;29.50;41.80
21807;DHT22;11065;50.786;7.840;2023-07-24T15:07:17;29.40;41.40
21807;DHT22;11065;50.786;7.840;2023-07-24T15:09:46;29.40;41.40
21807;DHT22;11065;50.786;7.840;2023-07-24T15:12:14;29.30;41.40
21807;DHT22;11065;50.786;7.840;2023-07-24T15:14:42;29.20;41.40
21807;DHT22;11065;50.786;7.840;2023-07-24T15:17:10;29.00;41.30
21807;DHT22;11065;50.786;7.840;2023-07-24T15:19:41;28.90;41.30
21807;DHT22;11065;50.786;7.840;2023-07-24T15:22:11;28.70;41.00
21807;DHT22;11065;50.786;7.840;2023-07-24T15:24:40;28.50;41.10
21807;DHT22;11065;50.786;7.840;2023-07-24T15:27:09;28.40;41.30
21807;DHT22;11065;50.786;7.840;2023-07-24T15:29:37;28.20;41.70
21807;DHT22;11065;50.786;7.840;2023-07-24T15:32:07;28.10;42.10
21807;DHT22;11065;50.786;7.840;2023-07-24T15:34:37;28.20;42.80
21807;DHT22;11065;50.786;7.840;2023-07-24T15:37:05;28.30;43.10
21807;DHT22;11065;50.786;7.840;2023-07-24T15:39:35;28.40;43.20
21807;DHT22;11065;50.786;7.840;2023-07-24T15:42:04;28.60;43.00